sensor_id;sensor_type;location;lat;lon;timestamp;temperature;humidity
12309;DHT22;6217;48.150;17.142;2022-07-23T00:02:43;27.10;57.10
12309;DHT22;6217;48.150;17.142;2022-07-23T00:06:49;27.00;57.10
12309;DHT22;6217;48.150;17.142;2022-07-23T00:10:55;27.00;57.20
12309;DHT22;6217;48.150;17.142;2022-07-23T00:15:03;26.90;57.10
12309;DHT22;6217;48.150;17.142;2022-07-23T00:19:10;26.90;57.10
12309;DHT22;6217;48.150;17.142;2022-07-23T00:23:17;26.90;57.20
12309;DHT22;6217;48.150;17.142;2022-07-23T00:27:23;26.80;57.20
12309;DHT22;6217;48.150;17.142;2022-07-23T00:31:29;26.90;56.90
12309;DHT22;6217;48.150;17.142;2022-07-23T00:35:38;26.90;56.40
12309;DHT22;6217;48.150;17.142;2022-07-23T00:39:46;26.80;56.20
12309;DHT22;6217;48.150;17.142;2022-07-23T00:43:52;26.80;56.00
12309;DHT22;6217;48.150;17.142;2022-07-23T00:47:59;26.80;55.90
12309;DHT22;6217;48.150;17.142;2022-07-23T00:52:05;26.80;55.80
12309;DHT22;6217;48.150;17.142;2022-07-23T00:56:12;26.80;55.80
12309;DHT22;6217;48.150;17.142;2022-07-23T01:00:18;26.80;55.70
12309;DHT22;6217;48.150;17.142;2022-07-23T01:04:25;26.80;55.60
12309;DHT22;6217;48.150;17.142;2022-07-23T01:08:31;26.70;55.40
12309;DHT22;6217;48.150;17.142;2022-07-23T01:12:37;26.70;55.40
12309;DHT22;6217;48.150;17.142;2022-07-23T01:16:45;26.70;55.30
12309;DHT22;6217;48.150;17.142;2022-07-23T01:20:52;26.60;55.30
12309;DHT22;6217;48.150;17.142;2022-07-23T01:24:58;26.50;55.40
12309;DHT22;6217;48.150;17.142;2022-07-23T01:29:07;26.50;55.60
12309;DHT22;6217;48.150;17.142;2022-07-23T01:33:14;26.50;55.70
12309;DHT22;6217;48.150;17.142;2022-07-23T01:37:21;26.50;55.60
12309;DHT22;6217;48.150;17.142;2022-07-23T01:41:28;26.60;55.80
12309;DHT22;6217;48.150;17.142;2022-07-23T01:45:34;26.50;55.90
12309;DHT22;6217;48.150;17.142;2022-07-23T01:49:40;26.50;56.10
12309;DHT22;6217;48.150;17.142;2022-07-23T01:54:08;26.50;56.20
12309;DHT22;6217;48.150;17.142;2022-07-23T01:58:14;26.40;56.30
12309;DHT22;6217;48.150;17.142;2022-07-23T02:02:21;26.40;56.30
12309;DHT22;6217;48.150;17.142;2022-07-23T02:06:27;26.40;56.30
12309;DHT22;6217;48.150;17.142;2022-07-23T02:10:33;26.30;56.40
12309;DHT22;6217;48.150;17.142;2022-07-23T02:14:43;26.40;56.80
12309;DHT22;6217;48.150;17.142;2022-07-23T02:18:49;26.30;56.80
12309;DHT22;6217;48.150;17.142;2022-07-23T02:22:55;26.30;56.90
12309;DHT22;6217;48.150;17.142;2022-07-23T02:27:01;26.30;57.10
12309;DHT22;6217;48.150;17.142;2022-07-23T02:31:08;26.30;57.20
12309;DHT22;6217;48.150;17.142;2022-07-23T02:35:14;26.30;57.30
12309;DHT22;6217;48.150;17.142;2022-07-23T02:39:20;26.30;57.30
12309;DHT22;6217;48.150;17.142;2022-07-23T02:43:27;26.30;57.20
12309;DHT22;6217;48.150;17.142;2022-07-23T02:47:33;26.20;57.20
12309;DHT22;6217;48.150;17.142;2022-07-23T02:51:41;26.20;57.50
12309;DHT22;6217;48.150;17.142;2022-07-23T02:55:47;26.10;57.80
12309;DHT22;6217;48.150;17.142;2022-07-23T02:59:54;26.10;57.90
12309;DHT22;6217;48.150;17.142;2022-07-23T03:04:01;26.10;57.80
12309;DHT22;6217;48.150;17.142;2022-07-23T03:08:08;26.10;57.40
12309;DHT22;6217;48.150;17.142;2022-07-23T03:12:16;26.20;57.50
12309;DHT22;6217;48.150;17.142;2022-07-23T03:16:23;26.10;57.70
12309;DHT22;6217;48.150;17.142;2022-07-23T03:20:29;26.20;57.80
12309;DHT22;6217;48.150;17.142;2022-07-23T03:24:36;26.20;57.20
12309;DHT22;6217;48.150;17.142;2022-07-23T03:29:04;26.40;56.60
12309;DHT22;6217;48.150;17.142;2022-07-23T03:33:11;26.40;56.50
12309;DHT22;6217;48.150;17.142;2022-07-23T03:37:22;26.50;56.60
12309;DHT22;6217;48.150;17.142;2022-07-23T03:41:29;26.50;56.90
12309;DHT22;6217;48.150;17.142;2022-07-23T03:45:35;26.60;56.10
12309;DHT22;6217;48.150;17.142;2022-07-23T03:49:41;26.60;56.20
12309;DHT22;6217;48.150;17.142;2022-07-23T03:53:48;26.60;55.90
12309;DHT22;6217;48.150;17.142;2022-07-23T03:57:56;26.70;55.60
12309;DHT22;6217;48.150;17.142;2022-07-23T04:02:02;26.70;55.40
12309;DHT22;6217;48.150;17.142;2022-07-23T04:06:09;26.70;55.30
12309;DHT22;6217;48.150;17.142;2022-07-23T04:10:17;26.70;55.00
12309;DHT22;6217;48.150;17.142;2022-07-23T04:14:23;26.80;54.80
12309;DHT22;6217;48.150;17.142;2022-07-23T04:18:29;26.80;54.70
12309;DHT22;6217;48.150;17.142;2022-07-23T04:22:44;26.80;54.60
12309;DHT22;6217;48.150;17.142;2022-07-23T04:26:50;26.80;54.60
12309;DHT22;6217;48.150;17.142;2022-07-23T04:30:57;26.80;54.60
12309;DHT22;6217;48.150;17.142;2022-07-23T04:35:03;26.80;54.50
12309;DHT22;6217;48.150;17.142;2022-07-23T04:39:10;26.80;54.60
12309;DHT22;6217;48.150;17.142;2022-07-23T04:43:16;26.80;54.50
12309;DHT22;6217;48.150;17.142;2022-07-23T04:47:28;26.80;54.50
12309;DHT22;6217;48.150;17.142;2022-07-23T04:51:36;26.80;54.50
12309;DHT22;6217;48.150;17.142;2022-07-23T04:55:42;26.90;54.50
12309;DHT22;6217;48.150;17.142;2022-07-23T04:59:49;26.90;54.40
12309;DHT22;6217;48.150;17.142;2022-07-23T05:03:55;26.90;54.50
12309;DHT22;6217;48.150;17.142;2022-07-23T05:08:04;27.10;54.50
12309;DHT22;6217;48.150;17.142;2022-07-23T05:12:11;27.20;54.20
12309;DHT22;6217;48.150;17.142;2022-07-23T05:16:17;27.40;53.90
12309;DHT22;6217;48.150;17.142;2022-07-23T05:20:24;27.70;53.50
12309;DHT22;6217;48.150;17.142;2022-07-23T05:24:30;27.90;53.10
12309;DHT22;6217;48.150;17.142;2022-07-23T05:28:36;28.20;52.90
12309;DHT22;6217;48.150;17.142;2022-07-23T05:32:42;28.50;52.50
12309;DHT22;6217;48.150;17.142;2022-07-23T05:36:56;28.60;52.00
12309;DHT22;6217;48.150;17.142;2022-07-23T05:41:02;28.70;51.50
12309;DHT22;6217;48.150;17.142;2022-07-23T05:45:10;28.70;51.30
12309;DHT22;6217;48.150;17.142;2022-07-23T05:49:20;28.90;50.70
12309;DHT22;6217;48.150;17.142;2022-07-23T05:53:46;28.90;50.50
12309;DHT22;6217;48.150;17.142;2022-07-23T05:57:59;28.70;50.50
12309;DHT22;6217;48.150;17.142;2022-07-23T06:02:07;28.80;50.40
12309;DHT22;6217;48.150;17.142;2022-07-23T06:06:14;30.00;49.20
12309;DHT22;6217;48.150;17.142;2022-07-23T06:10:20;30.70;47.30
12309;DHT22;6217;48.150;17.142;2022-07-23T06:14:26;31.60;45.80
12309;DHT22;6217;48.150;17.142;2022-07-23T06:18:36;31.10;46.70
12309;DHT22;6217;48.150;17.142;2022-07-23T06:22:43;31.00;46.30
12309;DHT22;6217;48.150;17.142;2022-07-23T06:26:51;32.40;44.70
12309;DHT22;6217;48.150;17.142;2022-07-23T06:30:57;31.80;44.70
12309;DHT22;6217;48.150;17.142;2022-07-23T06:35:04;31.40;45.50
12309;DHT22;6217;48.150;17.142;2022-07-23T06:39:10;31.30;45.60
12309;DHT22;6217;48.150;17.142;2022-07-23T06:43:17;31.30;45.60
12309;DHT22;6217;48.150;17.142;2022-07-23T06:47:25;31.40;45.50
12309;DHT22;6217;48.150;17.142;2022-07-23T06:51:31;31.70;45.30
12309;DHT22;6217;48.150;17.142;2022-07-23T06:55:40;32.00;44.90
12309;DHT22;6217;48.150;17.142;2022-07-23T06:59:47;32.30;44.30
12309;DHT22;6217;48.150;17.142;2022-07-23T07:03:54;31.90;44.70
12309;DHT22;6217;48.150;17.142;2022-07-23T07:08:00;32.80;43.80
12309;DHT22;6217;48.150;17.142;2022-07-23T07:12:06;33.00;43.00
12309;DHT22;6217;48.150;17.142;2022-07-23T07:16:13;32.80;43.30
12309;DHT22;6217;48.150;17.142;2022-07-23T07:20:19;32.80;43.50
12309;DHT22;6217;48.150;17.142;2022-07-23T07:24:25;32.80;43.50
12309;DHT22;6217;48.150;17.142;2022-07-23T07:28:31;33.10;43.10
12309;DHT22;6217;48.150;17.142;2022-07-23T07:32:38;33.00;42.70
12309;DHT22;6217;48.150;17.142;2022-07-23T07:36:44;33.00;42.60
12309;DHT22;6217;48.150;17.142;2022-07-23T07:40:51;33.20;42.20
12309;DHT22;6217;48.150;17.142;2022-07-23T07:44:57;33.30;42.00
12309;DHT22;6217;48.150;17.142;2022-07-23T07:49:03;33.30;41.70
12309;DHT22;6217;48.150;17.142;2022-07-23T07:53:09;33.30;41.60
12309;DHT22;6217;48.150;17.142;2022-07-23T07:57:15;33.40;41.30
12309;DHT22;6217;48.150;17.142;2022-07-23T08:01:21;33.60;41.30
12309;DHT22;6217;48.150;17.142;2022-07-23T08:05:30;33.60;41.30
12309;DHT22;6217;48.150;17.142;2022-07-23T08:09:36;34.70;40.40
12309;DHT22;6217;48.150;17.142;2022-07-23T08:13:42;35.20;39.40
12309;DHT22;6217;48.150;17.142;2022-07-23T08:17:50;36.60;38.00
12309;DHT22;6217;48.150;17.142;2022-07-23T08:21:56;36.50;36.80
12309;DHT22;6217;48.150;17.142;2022-07-23T08:26:02;36.00;37.40
12309;DHT22;6217;48.150;17.142;2022-07-23T08:30:09;34.90;38.60
12309;DHT22;6217;48.150;17.142;2022-07-23T08:34:15;34.10;39.90
12309;DHT22;6217;48.150;17.142;2022-07-23T08:38:22;33.80;40.70
12309;DHT22;6217;48.150;17.142;2022-07-23T08:42:28;33.80;40.90
12309;DHT22;6217;48.150;17.142;2022-07-23T08:46:35;33.60;41.30
12309;DHT22;6217;48.150;17.142;2022-07-23T08:50:43;33.70;41.50
12309;DHT22;6217;48.150;17.142;2022-07-23T08:54:51;33.60;41.90
12309;DHT22;6217;48.150;17.142;2022-07-23T08:58:58;33.50;42.30
12309;DHT22;6217;48.150;17.142;2022-07-23T09:03:05;33.60;42.40
12309;DHT22;6217;48.150;17.142;2022-07-23T09:07:11;33.70;42.70
12309;DHT22;6217;48.150;17.142;2022-07-23T09:11:18;33.80;42.90
12309;DHT22;6217;48.150;17.142;2022-07-23T09:15:24;34.00;43.00
12309;DHT22;6217;48.150;17.142;2022-07-23T09:19:31;34.10;42.90
12309;DHT22;6217;48.150;17.142;2022-07-23T09:23:42;34.20;43.10
12309;DHT22;6217;48.150;17.142;2022-07-23T09:27:58;34.30;43.00
12309;DHT22;6217;48.150;17.142;2022-07-23T09:32:13;34.30;42.90
12309;DHT22;6217;48.150;17.142;2022-07-23T09:36:29;34.40;42.60
12309;DHT22;6217;48.150;17.142;2022-07-23T09:40:35;34.40;42.50
12309;DHT22;6217;48.150;17.142;2022-07-23T09:44:44;34.40;42.30
12309;DHT22;6217;48.150;17.142;2022-07-23T09:48:54;34.60;42.20
12309;DHT22;6217;48.150;17.142;2022-07-23T09:53:05;34.70;41.70
12309;DHT22;6217;48.150;17.142;2022-07-23T09:57:12;34.80;41.40
12309;DHT22;6217;48.150;17.142;2022-07-23T10:01:22;34.90;41.00
12309;DHT22;6217;48.150;17.142;2022-07-23T10:05:29;35.00;40.70
12309;DHT22;6217;48.150;17.142;2022-07-23T10:10:11;35.00;40.40
12309;DHT22;6217;48.150;17.142;2022-07-23T10:14:39;35.10;40.20
12309;DHT22;6217;48.150;17.142;2022-07-23T10:18:48;35.10;40.00
12309;DHT22;6217;48.150;17.142;2022-07-23T10:23:00;35.10;39.70
12309;DHT22;6217;48.150;17.142;2022-07-23T10:36:03;35.30;39.30
12309;DHT22;6217;48.150;17.142;2022-07-23T10:44:23;35.50;39.00
12309;DHT22;6217;48.150;17.142;2022-07-23T10:48:29;35.50;39.20
12309;DHT22;6217;48.150;17.142;2022-07-23T10:52:35;35.70;39.10
12309;DHT22;6217;48.150;17.142;2022-07-23T10:57:11;35.90;39.10
12309;DHT22;6217;48.150;17.142;2022-07-23T11:01:35;36.00;39.00
12309;DHT22;6217;48.150;17.142;2022-07-23T11:05:45;36.00;38.80
12309;DHT22;6217;48.150;17.142;2022-07-23T11:09:52;36.00;38.90
12309;DHT22;6217;48.150;17.142;2022-07-23T11:13:59;36.00;38.90
12309;DHT22;6217;48.150;17.142;2022-07-23T11:18:06;36.10;38.80
12309;DHT22;6217;48.150;17.142;2022-07-23T11:26:51;36.10;38.20
12309;DHT22;6217;48.150;17.142;2022-07-23T11:30:59;36.00;38.10
12309;DHT22;6217;48.150;17.142;2022-07-23T11:35:25;36.00;38.10
12309;DHT22;6217;48.150;17.142;2022-07-23T11:39:34;36.00;37.50
12309;DHT22;6217;48.150;17.142;2022-07-23T11:43:40;36.00;36.80
12309;DHT22;6217;48.150;17.142;2022-07-23T11:47:47;36.10;36.40
12309;DHT22;6217;48.150;17.142;2022-07-23T11:52:13;36.20;35.70
12309;DHT22;6217;48.150;17.142;2022-07-23T11:56:20;36.20;34.00
12309;DHT22;6217;48.150;17.142;2022-07-23T12:00:29;36.20;34.10
12309;DHT22;6217;48.150;17.142;2022-07-23T12:04:44;36.20;33.60
12309;DHT22;6217;48.150;17.142;2022-07-23T12:08:51;36.30;32.90
12309;DHT22;6217;48.150;17.142;2022-07-23T12:13:05;36.30;32.80
12309;DHT22;6217;48.150;17.142;2022-07-23T12:17:13;36.30;32.30
12309;DHT22;6217;48.150;17.142;2022-07-23T12:21:19;36.40;32.40
12309;DHT22;6217;48.150;17.142;2022-07-23T12:25:34;36.30;32.10
12309;DHT22;6217;48.150;17.142;2022-07-23T12:29:44;36.20;32.20
12309;DHT22;6217;48.150;17.142;2022-07-23T12:33:51;36.10;32.10
12309;DHT22;6217;48.150;17.142;2022-07-23T12:38:02;36.10;32.50
12309;DHT22;6217;48.150;17.142;2022-07-23T12:42:11;36.00;32.80
12309;DHT22;6217;48.150;17.142;2022-07-23T12:46:19;35.80;32.30
12309;DHT22;6217;48.150;17.142;2022-07-23T12:50:53;35.70;31.70
12309;DHT22;6217;48.150;17.142;2022-07-23T12:55:00;35.60;31.10
12309;DHT22;6217;48.150;17.142;2022-07-23T12:59:08;35.70;31.50
12309;DHT22;6217;48.150;17.142;2022-07-23T13:07:35;35.70;31.70
12309;DHT22;6217;48.150;17.142;2022-07-23T13:11:42;35.70;31.60
12309;DHT22;6217;48.150;17.142;2022-07-23T13:15:50;35.70;31.50
12309;DHT22;6217;48.150;17.142;2022-07-23T13:19:56;35.80;31.80
12309;DHT22;6217;48.150;17.142;2022-07-23T13:24:03;35.70;32.20
12309;DHT22;6217;48.150;17.142;2022-07-23T13:28:09;35.50;32.80
12309;DHT22;6217;48.150;17.142;2022-07-23T13:32:16;35.30;33.80
12309;DHT22;6217;48.150;17.142;2022-07-23T13:36:22;35.00;35.20
12309;DHT22;6217;48.150;17.142;2022-07-23T13:40:28;34.70;37.00
12309;DHT22;6217;48.150;17.142;2022-07-23T13:44:34;34.40;37.50
12309;DHT22;6217;48.150;17.142;2022-07-23T13:48:41;34.20;38.40
12309;DHT22;6217;48.150;17.142;2022-07-23T13:52:47;34.10;38.90
12309;DHT22;6217;48.150;17.142;2022-07-23T13:56:53;33.90;39.40
12309;DHT22;6217;48.150;17.142;2022-07-23T14:00:59;33.70;39.90
12309;DHT22;6217;48.150;17.142;2022-07-23T14:05:08;33.60;40.30
12309;DHT22;6217;48.150;17.142;2022-07-23T14:09:15;33.50;40.60
12309;DHT22;6217;48.150;17.142;2022-07-23T14:13:21;33.50;40.70
12309;DHT22;6217;48.150;17.142;2022-07-23T14:17:27;33.40;40.70
12309;DHT22;6217;48.150;17.142;2022-07-23T14:21:34;33.30;40.70
12309;DHT22;6217;48.150;17.142;2022-07-23T14:25:40;33.30;40.70
12309;DHT22;6217;48.150;17.142;2022-07-23T14:29:46;33.30;40.60
12309;DHT22;6217;48.150;17.142;2022-07-23T14:33:52;33.30;40.70
12309;DHT22;6217;48.150;17.142;2022-07-23T14:37:59;33.10;40.90
12309;DHT22;6217;48.150;17.142;2022-07-23T14:42:06;33.10;41.00
12309;DHT22;6217;48.150;17.142;2022-07-23T14:46:12;33.20;40.60
12309;DHT22;6217;48.150;17.142;2022-07-23T14:50:19;33.30;39.90
12309;DHT22;6217;48.150;17.142;2022-07-23T14:54:26;33.70;39.20
12309;DHT22;6217;48.150;17.142;2022-07-23T14:58:32;34.00;38.50
12309;DHT22;6217;48.150;17.142;2022-07-23T15:02:39;34.10;38.00
12309;DHT22;6217;48.150;17.142;2022-07-23T15:06:45;34.10;37.80
12309;DHT22;6217;48.150;17.142;2022-07-23T15:10:51;34.00;37.80
12309;DHT22;6217;48.150;17.142;2022-07-23T15:14:57;33.90;38.00
12309;DHT22;6217;48.150;17.142;2022-07-23T15:19:04;33.70;38.30
12309;DHT22;6217;48.150;17.142;2022-07-23T15:23:10;33.60;38.50
12309;DHT22;6217;48.150;17.142;2022-07-23T15:27:17;33.60;38.60
12309;DHT22;6217;48.150;17.142;2022-07-23T15:31:23;33.50;38.50
12309;DHT22;6217;48.150;17.142;2022-07-23T15:35:30;33.50;38.30
12309;DHT22;6217;48.150;17.142;2022-07-23T15:39:37;33.40;38.10
12309;DHT22;6217;48.150;17.142;2022-07-23T15:43:43;33.40;38.00
12309;DHT22;6217;48.150;17.142;2022-07-23T15:47:49;33.40;37.90
12309;DHT22;6217;48.150;17.142;2022-07-23T15:51:55;33.40;37.80
12309;DHT22;6217;48.150;17.142;2022-07-23T15:56:03;33.30;38.20
12309;DHT22;6217;48.150;17.142;2022-07-23T16:00:11;33.30;37.30
12309;DHT22;6217;48.150;17.142;2022-07-23T16:04:17;33.30;37.20
12309;DHT22;6217;48.150;17.142;2022-07-23T16:08:24;33.20;37.00
12309;DHT22;6217;48.150;17.142;2022-07-23T16:12:30;33.20;36.80
12309;DHT22;6217;48.150;17.142;2022-07-23T16:16:36;33.10;36.70
12309;DHT22;6217;48.150;17.142;2022-07-23T16:20:42;33.00;36.40
12309;DHT22;6217;48.150;17.142;2022-07-23T16:24:49;32.90;36.30
12309;DHT22;6217;48.150;17.142;2022-07-23T16:28:55;32.80;36.10
12309;DHT22;6217;48.150;17.142;2022-07-23T16:33:02;32.80;35.90
12309;DHT22;6217;48.150;17.142;2022-07-23T16:37:08;32.70;35.70
12309;DHT22;6217;48.150;17.142;2022-07-23T16:41:15;32.70;35.50
12309;DHT22;6217;48.150;17.142;2022-07-23T16:45:21;32.70;35.50
12309;DHT22;6217;48.150;17.142;2022-07-23T16:49:28;32.60;35.40
12309;DHT22;6217;48.150;17.142;2022-07-23T16:53:35;32.60;35.30
12309;DHT22;6217;48.150;17.142;2022-07-23T16:57:42;32.50;35.30
12309;DHT22;6217;48.150;17.142;2022-07-23T17:01:48;32.50;35.20
12309;DHT22;6217;48.150;17.142;2022-07-23T17:05:55;32.50;35.50
12309;DHT22;6217;48.150;17.142;2022-07-23T17:10:03;32.40;35.60
12309;DHT22;6217;48.150;17.142;2022-07-23T17:14:11;32.40;35.80
12309;DHT22;6217;48.150;17.142;2022-07-23T17:18:17;32.20;35.80
12309;DHT22;6217;48.150;17.142;2022-07-23T17:22:23;32.20;36.10
12309;DHT22;6217;48.150;17.142;2022-07-23T17:26:29;32.00;37.30
12309;DHT22;6217;48.150;17.142;2022-07-23T17:30:38;31.80;38.60
12309;DHT22;6217;48.150;17.142;2022-07-23T17:34:45;31.70;39.20
12309;DHT22;6217;48.150;17.142;2022-07-23T17:38:52;31.50;40.10
12309;DHT22;6217;48.150;17.142;2022-07-23T17:42:59;31.40;40.60
12309;DHT22;6217;48.150;17.142;2022-07-23T17:47:05;31.30;40.60
12309;DHT22;6217;48.150;17.142;2022-07-23T17:51:12;31.20;40.20
12309;DHT22;6217;48.150;17.142;2022-07-23T17:55:20;31.20;40.20
12309;DHT22;6217;48.150;17.142;2022-07-23T17:59:26;31.20;40.20
12309;DHT22;6217;48.150;17.142;2022-07-23T18:03:33;31.20;40.30
12309;DHT22;6217;48.150;17.142;2022-07-23T18:07:39;31.10;40.40
12309;DHT22;6217;48.150;17.142;2022-07-23T18:11:45;31.10;40.50
12309;DHT22;6217;48.150;17.142;2022-07-23T18:15:51;31.00;40.60
12309;DHT22;6217;48.150;17.142;2022-07-23T18:19:58;31.00;40.50
12309;DHT22;6217;48.150;17.142;2022-07-23T18:24:04;30.90;40.30
12309;DHT22;6217;48.150;17.142;2022-07-23T18:28:11;30.90;40.50
12309;DHT22;6217;48.150;17.142;2022-07-23T18:32:17;30.80;40.90
12309;DHT22;6217;48.150;17.142;2022-07-23T18:36:23;30.70;41.20
12309;DHT22;6217;48.150;17.142;2022-07-23T18:40:29;30.60;41.60
12309;DHT22;6217;48.150;17.142;2022-07-23T18:44:37;30.50;41.70
12309;DHT22;6217;48.150;17.142;2022-07-23T18:48:43;30.50;42.00
12309;DHT22;6217;48.150;17.142;2022-07-23T18:52:49;30.50;42.10
12309;DHT22;6217;48.150;17.142;2022-07-23T18:56:55;30.40;42.30
12309;DHT22;6217;48.150;17.142;2022-07-23T19:01:02;30.40;42.40
12309;DHT22;6217;48.150;17.142;2022-07-23T19:05:08;30.40;42.70
12309;DHT22;6217;48.150;17.142;2022-07-23T19:09:15;30.40;42.80
12309;DHT22;6217;48.150;17.142;2022-07-23T19:13:22;30.30;42.90
12309;DHT22;6217;48.150;17.142;2022-07-23T19:17:28;30.20;42.90
12309;DHT22;6217;48.150;17.142;2022-07-23T19:21:34;30.20;43.00
12309;DHT22;6217;48.150;17.142;2022-07-23T19:25:40;30.20;43.10
12309;DHT22;6217;48.150;17.142;2022-07-23T19:29:46;30.10;43.30
12309;DHT22;6217;48.150;17.142;2022-07-23T19:33:53;30.00;43.30
12309;DHT22;6217;48.150;17.142;2022-07-23T19:37:59;30.00;43.20
12309;DHT22;6217;48.150;17.142;2022-07-23T19:42:05;29.90;43.20
12309;DHT22;6217;48.150;17.142;2022-07-23T19:46:11;29.90;44.20
12309;DHT22;6217;48.150;17.142;2022-07-23T19:50:18;29.90;43.50
12309;DHT22;6217;48.150;17.142;2022-07-23T19:54:25;29.80;43.30
12309;DHT22;6217;48.150;17.142;2022-07-23T19:58:34;29.80;43.50
12309;DHT22;6217;48.150;17.142;2022-07-23T20:02:40;29.70;43.60
12309;DHT22;6217;48.150;17.142;2022-07-23T20:06:47;29.70;43.40
12309;DHT22;6217;48.150;17.142;2022-07-23T20:10:53;29.80;43.80
12309;DHT22;6217;48.150;17.142;2022-07-23T20:14:59;29.80;42.90
12309;DHT22;6217;48.150;17.142;2022-07-23T20:19:05;29.80;42.90
12309;DHT22;6217;48.150;17.142;2022-07-23T20:23:11;29.70;42.80
12309;DHT22;6217;48.150;17.142;2022-07-23T20:27:17;29.70;43.00
12309;DHT22;6217;48.150;17.142;2022-07-23T20:31:24;29.70;43.30
12309;DHT22;6217;48.150;17.142;2022-07-23T20:35:30;29.70;43.60
12309;DHT22;6217;48.150;17.142;2022-07-23T20:39:36;29.60;43.70
12309;DHT22;6217;48.150;17.142;2022-07-23T20:43:43;29.60;43.90
12309;DHT22;6217;48.150;17.142;2022-07-23T20:47:49;29.50;44.10
12309;DHT22;6217;48.150;17.142;2022-07-23T20:51:58;29.40;44.40
12309;DHT22;6217;48.150;17.142;2022-07-23T20:56:04;29.40;44.70
12309;DHT22;6217;48.150;17.142;2022-07-23T21:00:13;29.30;44.70
12309;DHT22;6217;48.150;17.142;2022-07-23T21:04:20;29.20;44.80
12309;DHT22;6217;48.150;17.142;2022-07-23T21:08:27;29.10;44.80
12309;DHT22;6217;48.150;17.142;2022-07-23T21:12:33;29.10;45.00
12309;DHT22;6217;48.150;17.142;2022-07-23T21:16:39;29.10;45.00
12309;DHT22;6217;48.150;17.142;2022-07-23T21:20:45;29.10;45.10
12309;DHT22;6217;48.150;17.142;2022-07-23T21:25:11;29.10;45.30
12309;DHT22;6217;48.150;17.142;2022-07-23T21:29:18;29.00;45.30
12309;DHT22;6217;48.150;17.142;2022-07-23T21:33:24;29.00;45.70
12309;DHT22;6217;48.150;17.142;2022-07-23T21:37:30;29.00;45.90
12309;DHT22;6217;48.150;17.142;2022-07-23T21:41:36;28.90;45.90
12309;DHT22;6217;48.150;17.142;2022-07-23T21:45:43;28.90;46.00
12309;DHT22;6217;48.150;17.142;2022-07-23T21:49:49;28.90;46.30
12309;DHT22;6217;48.150;17.142;2022-07-23T21:53:56;28.80;46.40
12309;DHT22;6217;48.150;17.142;2022-07-23T21:58:03;28.80;46.40
12309;DHT22;6217;48.150;17.142;2022-07-23T22:02:09;28.70;46.40
12309;DHT22;6217;48.150;17.142;2022-07-23T22:06:15;28.70;46.70
12309;DHT22;6217;48.150;17.142;2022-07-23T22:10:22;28.60;46.90
12309;DHT22;6217;48.150;17.142;2022-07-23T22:14:28;28.50;47.00
12309;DHT22;6217;48.150;17.142;2022-07-23T22:18:34;28.40;47.10
12309;DHT22;6217;48.150;17.142;2022-07-23T22:22:45;28.40;47.20
12309;DHT22;6217;48.150;17.142;2022-07-23T22:26:53;28.40;47.30
12309;DHT22;6217;48.150;17.142;2022-07-23T22:30:59;28.30;47.30
12309;DHT22;6217;48.150;17.142;2022-07-23T22:35:06;28.30;47.70
12309;DHT22;6217;48.150;17.142;2022-07-23T22:39:12;28.30;47.90
12309;DHT22;6217;48.150;17.142;2022-07-23T22:43:19;28.20;47.80
12309;DHT22;6217;48.150;17.142;2022-07-23T22:47:25;28.20;47.70
12309;DHT22;6217;48.150;17.142;2022-07-23T22:51:32;28.20;47.70
12309;DHT22;6217;48.150;17.142;2022-07-23T22:55:38;28.10;47.70
12309;DHT22;6217;48.150;17.142;2022-07-23T22:59:44;28.10;47.70
12309;DHT22;6217;48.150;17.142;2022-07-23T23:03:50;28.00;47.70
12309;DHT22;6217;48.150;17.142;2022-07-23T23:07:57;28.00;47.70
12309;DHT22;6217;48.150;17.142;2022-07-23T23:12:03;28.10;47.80
12309;DHT22;6217;48.150;17.142;2022-07-23T23:16:10;28.10;47.80
12309;DHT22;6217;48.150;17.142;2022-07-23T23:20:16;28.10;48.00
12309;DHT22;6217;48.150;17.142;2022-07-23T23:24:22;28.10;48.10
12309;DHT22;6217;48.150;17.142;2022-07-23T23:28:28;28.00;48.30
12309;DHT22;6217;48.150;17.142;2022-07-23T23:32:34;27.90;48.40
12309;DHT22;6217;48.150;17.142;2022-07-23T23:36:41;27.90;48.60
12309;DHT22;6217;48.150;17.142;2022-07-23T23:40:48;27.90;48.80
12309;DHT22;6217;48.150;17.142;2022-07-23T23:44:54;27.80;48.60
12309;DHT22;6217;48.150;17.142;2022-07-23T23:49:01;27.80;48.60
12309;DHT22;6217;48.150;17.142;2022-07-23T23:53:07;27.70;48.80
12309;DHT22;6217;48.150;17.142;2022-07-23T23:57:14;27.60;48.90
